Terminal Aerodrome Forecast
Issued by NWS

Home | Current Version | Previous Version | Text Only | Print | Product List | Glossary On
Versions: 1 2 3 4 5 6 7 8 9 10 11 12 13 14 15 16 17 18
357
FTUS41 KPHI 071140
TAFMIV
TAF
KMIV 071140Z 0712/0812 33005KT P6SM OVC006
     FM071330 33006KT P6SM SCT006 OVC013
     FM071700 31008KT P6SM BKN022
     FM071900 31011KT P6SM SCT025 BKN120
     FM080000 30004KT P6SM BKN150=

USA.gov is the U.S. government's official web portal to all federal, state and local government web resources and services.